Time;durP1;ratioP1;P1;durP2;ratioP2;P2;SDS_P1;SDS_P2;PMS_P1;PMS_P2;Temp;Humidity;BMP_temperature;BMP_pressure;BME280_temperature;BME280_humidity;BME280_pressure;Samples;Min_cycle;Max_cycle;Signal;HPM_P1;HPM_P2
2021/01/12 00:00:18;;;;;;;0.70;0.60;;;16.20;43.50;;;;;;6116156;23;20140;-82
2021/01/12 00:02:43;;;;;;;0.50;0.50;;;16.30;43.50;;;;;;6118341;23;20137;-82
2021/01/12 00:05:10;;;;;;;0.80;0.60;;;16.20;43.50;;;;;;6117855;23;20141;-83
2021/01/12 00:07:36;;;;;;;0.85;0.70;;;16.30;43.40;;;;;;6118844;23;20140;-82
2021/01/12 00:10:03;;;;;;;1.15;0.60;;;16.30;43.40;;;;;;6116593;23;20141;-83
2021/01/12 00:12:29;;;;;;;1.10;0.88;;;16.20;43.50;;;;;;6117973;23;20168;-82
2021/01/12 00:14:57;;;;;;;0.98;0.50;;;16.20;43.50;;;;;;6118648;23;20461;-82
2021/01/12 00:17:22;;;;;;;1.00;0.50;;;16.20;43.50;;;;;;6116759;23;20137;-82
2021/01/12 00:19:48;;;;;;;1.45;0.70;;;16.20;43.50;;;;;;6116388;23;20133;-81
2021/01/12 00:22:14;;;;;;;0.60;0.60;;;16.20;43.50;;;;;;6116089;23;20237;-82
2021/01/12 00:24:43;;;;;;;0.65;0.60;;;16.20;43.50;;;;;;6115279;23;20144;-81
2021/01/12 00:27:10;;;;;;;2.15;0.80;;;16.20;43.50;;;;;;6116163;23;20144;-82
2021/01/12 00:29:36;;;;;;;0.80;0.70;;;16.20;43.60;;;;;;6115929;23;20137;-82
2021/01/12 00:32:01;;;;;;;0.75;0.60;;;16.20;43.60;;;;;;6115819;23;20176;-81
2021/01/12 00:34:27;;;;;;;1.00;0.70;;;16.20;43.70;;;;;;6116699;23;20465;-81
2021/01/12 00:36:53;;;;;;;1.35;0.65;;;16.20;43.70;;;;;;6127544;23;20187;-82
2021/01/12 00:39:20;;;;;;;0.70;0.70;;;16.20;43.60;;;;;;6119122;23;20203;-80
2021/01/12 00:41:54;;;;;;;0.52;0.50;;;16.20;43.70;;;;;;6145579;23;20161;-82
2021/01/12 00:44:22;;;;;;;1.08;0.77;;;16.20;43.70;;;;;;6119834;23;20124;-82
2021/01/12 00:46:47;;;;;;;0.60;0.60;;;16.20;43.60;;;;;;6094350;23;20144;-81
2021/01/12 00:49:15;;;;;;;0.68;0.55;;;16.20;43.50;;;;;;6070591;23;20140;-81
2021/01/12 00:51:41;;;;;;;1.23;0.80;;;16.20;43.60;;;;;;6118429;23;20132;-82
2021/01/12 00:54:30;;;;;;;0.82;0.70;;;16.20;43.70;;;;;;6094332;23;20132;-82
2021/01/12 00:56:59;;;;;;;1.20;0.82;;;16.20;43.60;;;;;;6140072;23;20139;-82
2021/01/12 00:59:28;;;;;;;1.15;0.70;;;16.20;43.60;;;;;;6143789;23;20572;-81
2021/01/12 01:01:59;;;;;;;2.72;0.57;;;16.20;43.60;;;;;;6116854;23;20132;-82
2021/01/12 01:04:25;;;;;;;1.17;0.70;;;16.20;43.70;;;;;;6094057;23;20144;-81
2021/01/12 01:06:51;;;;;;;1.35;0.80;;;16.20;43.60;;;;;;6095485;23;20144;-81
2021/01/12 01:09:17;;;;;;;0.82;0.65;;;16.20;43.70;;;;;;6119505;23;20156;-82
2021/01/12 01:11:44;;;;;;;0.82;0.70;;;16.20;43.70;;;;;;6118940;23;20495;-82
2021/01/12 01:14:13;;;;;;;0.77;0.60;;;16.20;43.70;;;;;;6118742;23;20148;-81
2021/01/12 01:16:40;;;;;;;0.90;0.60;;;16.20;43.70;;;;;;6145502;23;20620;-81
2021/01/12 01:19:07;;;;;;;0.50;0.50;;;16.20;43.70;;;;;;6119113;23;20531;-81
2021/01/12 01:21:34;;;;;;;0.80;0.65;;;16.20;43.60;;;;;;6144982;23;20139;-82
2021/01/12 01:24:00;;;;;;;1.35;0.73;;;16.20;43.80;;;;;;6145913;23;20476;-80
2021/01/12 01:26:27;;;;;;;1.05;0.70;;;16.20;44.00;;;;;;6145293;23;20141;-81
2021/01/12 01:29:02;;;;;;;1.20;0.75;;;16.20;43.80;;;;;;6145064;23;20136;-82
2021/01/12 01:31:36;;;;;;;0.80;0.60;;;16.20;43.70;;;;;;6119205;23;20565;-81
2021/01/12 01:34:01;;;;;;;0.98;0.70;;;16.20;43.60;;;;;;6144766;23;20164;-82
2021/01/12 01:36:27;;;;;;;0.98;0.63;;;16.20;43.80;;;;;;6118280;23;20651;-82
2021/01/12 01:38:53;;;;;;;0.65;0.65;;;16.20;43.60;;;;;;6145078;23;20159;-81
2021/01/12 01:41:19;;;;;;;0.50;0.50;;;16.20;43.70;;;;;;6144367;23;20139;-82
2021/01/12 01:43:45;;;;;;;0.60;0.60;;;16.20;43.60;;;;;;6145688;23;20144;-80
2021/01/12 01:46:10;;;;;;;1.48;0.70;;;16.20;43.70;;;;;;6145883;23;20179;-82
2021/01/12 01:48:36;;;;;;;0.55;0.50;;;16.30;43.70;;;;;;6095256;23;20136;-81
2021/01/12 01:51:02;;;;;;;1.17;0.80;;;16.20;43.70;;;;;;6119179;23;20140;-81
2021/01/12 01:53:34;;;;;;;0.68;0.60;;;16.20;43.70;;;;;;6095023;23;20233;-81
2021/01/12 01:56:05;;;;;;;0.50;0.50;;;16.20;43.80;;;;;;6145614;23;20137;-81
2021/01/12 01:58:31;;;;;;;0.88;0.50;;;16.20;43.70;;;;;;6145256;23;20140;-81
2021/01/12 02:00:57;;;;;;;0.82;0.60;;;16.20;43.70;;;;;;6118769;23;20552;-81
2021/01/12 02:03:50;;;;;;;0.88;0.57;;;16.20;43.80;;;;;;6144765;23;20212;-81
2021/01/12 02:06:19;;;;;;;0.80;0.60;;;16.20;43.70;;;;;;6140407;23;20171;-82
2021/01/12 02:09:14;;;;;;;0.80;0.70;;;16.20;43.70;;;;;;6145292;23;20144;-81
2021/01/12 02:11:42;;;;;;;0.57;0.50;;;16.20;43.80;;;;;;6145418;23;20168;-81
2021/01/12 02:14:11;;;;;;;1.42;0.70;;;16.20;43.70;;;;;;6094924;23;20133;-81
2021/01/12 02:16:40;;;;;;;0.88;0.60;;;16.20;43.70;;;;;;6095198;23;20164;-81
2021/01/12 02:19:06;;;;;;;0.82;0.50;;;16.20;43.80;;;;;;6118946;23;20128;-81
2021/01/12 02:21:33;;;;;;;0.70;0.60;;;16.20;43.70;;;;;;6117703;23;20491;-82
2021/01/12 02:23:59;;;;;;;0.70;0.70;;;16.20;43.70;;;;;;6094161;23;20137;-79
2021/01/12 02:26:24;;;;;;;0.77;0.70;;;16.20;43.80;;;;;;6094885;23;20155;-81
2021/01/12 02:28:52;;;;;;;0.90;0.60;;;16.20;43.80;;;;;;6144315;23;20159;-80
2021/01/12 02:31:30;;;;;;;0.77;0.57;;;16.20;43.90;;;;;;6118460;23;20147;-80
2021/01/12 02:33:58;;;;;;;0.70;0.70;;;16.20;44.40;;;;;;6144547;23;20200;-81
2021/01/12 02:36:23;;;;;;;1.45;0.65;;;16.20;43.70;;;;;;6118371;23;20216;-82
2021/01/12 02:38:50;;;;;;;0.60;0.60;;;16.20;43.80;;;;;;6118621;23;20133;-81
2021/01/12 02:41:29;;;;;;;0.70;0.60;;;16.20;43.90;;;;;;6145178;23;20132;-81
2021/01/12 02:43:55;;;;;;;0.70;0.50;;;16.20;43.90;;;;;;6145160;23;20156;-82
2021/01/12 02:46:22;;;;;;;0.95;0.70;;;16.20;43.90;;;;;;6144362;23;20148;-81
2021/01/12 02:48:48;;;;;;;1.10;0.70;;;16.20;43.90;;;;;;6145725;23;20592;-82
2021/01/12 02:51:15;;;;;;;0.63;0.60;;;16.20;43.90;;;;;;6145548;23;20580;-82
2021/01/12 02:53:40;;;;;;;0.90;0.80;;;16.20;43.90;;;;;;6145005;23;20183;-81
2021/01/12 02:56:06;;;;;;;0.88;0.57;;;16.20;43.90;;;;;;6145109;23;20133;-81
2021/01/12 02:58:32;;;;;;;1.15;0.70;;;16.20;43.90;;;;;;6118606;23;20647;-82
2021/01/12 03:00:57;;;;;;;1.00;0.70;;;16.10;43.90;;;;;;6144566;23;20595;-81
2021/01/12 03:03:23;;;;;;;1.52;0.70;;;16.20;43.90;;;;;;6144985;23;20121;-81
2021/01/12 03:05:49;;;;;;;0.88;0.50;;;16.10;43.90;;;;;;6145039;23;20137;-82
2021/01/12 03:08:15;;;;;;;0.80;0.50;;;16.20;44.00;;;;;;6143965;23;20139;-81
2021/01/12 03:10:42;;;;;;;0.90;0.70;;;16.10;44.00;;;;;;6117920;23;20149;-81
2021/01/12 03:13:08;;;;;;;0.60;0.60;;;16.10;44.00;;;;;;6117657;23;20712;-80
2021/01/12 03:15:37;;;;;;;0.82;0.73;;;16.10;43.90;;;;;;6093743;23;20132;-81
2021/01/12 03:18:04;;;;;;;0.70;0.70;;;16.20;43.90;;;;;;6143987;23;20137;-81
2021/01/12 03:20:32;;;;;;;1.30;0.70;;;16.20;43.90;;;;;;6144349;23;20133;-81
2021/01/12 03:22:57;;;;;;;0.60;0.50;;;16.20;43.90;;;;;;6143732;23;20136;-81
2021/01/12 03:25:23;;;;;;;0.70;0.70;;;16.20;43.90;;;;;;6143438;23;20637;-80
2021/01/12 03:27:49;;;;;;;0.70;0.70;;;16.20;44.00;;;;;;6116806;23;20136;-80
2021/01/12 03:30:15;;;;;;;0.85;0.60;;;16.20;44.00;;;;;;6143122;23;20136;-81
2021/01/12 03:32:44;;;;;;;1.20;0.70;;;16.20;44.00;;;;;;6116960;23;20167;-81
2021/01/12 03:35:11;;;;;;;0.55;0.50;;;16.20;44.00;;;;;;6142541;23;20149;-82
2021/01/12 03:37:40;;;;;;;0.98;0.70;;;16.20;44.00;;;;;;6091762;23;20188;-82
2021/01/12 03:40:07;;;;;;;1.30;0.70;;;16.20;43.90;;;;;;6141972;23;20192;-81
2021/01/12 03:42:35;;;;;;;1.13;0.60;;;16.20;44.60;;;;;;6142261;23;20216;-82
2021/01/12 03:45:01;;;;;;;1.13;0.68;;;16.20;43.90;;;;;;6117061;23;20147;-81
2021/01/12 03:47:26;;;;;;;0.95;0.70;;;16.20;43.90;;;;;;6115317;23;20191;-81
2021/01/12 03:49:54;;;;;;;0.85;0.40;;;16.20;43.80;;;;;;6115832;23;20136;-81
2021/01/12 03:52:19;;;;;;;0.60;0.40;;;16.20;43.90;;;;;;6141287;23;20191;-81
2021/01/12 03:54:46;;;;;;;0.60;0.60;;;16.20;44.00;;;;;;6140697;23;20203;-82
2021/01/12 03:57:12;;;;;;;0.70;0.60;;;16.20;44.00;;;;;;6140510;23;20134;-81
2021/01/12 03:59:40;;;;;;;0.80;0.60;;;16.10;44.00;;;;;;6091871;23;20151;-82
2021/01/12 04:02:05;;;;;;;0.90;0.55;;;16.10;44.10;;;;;;6142042;23;20137;-81
2021/01/12 04:04:31;;;;;;;0.90;0.70;;;16.10;44.00;;;;;;6115253;23;20136;-81
2021/01/12 04:06:57;;;;;;;0.50;0.50;;;16.20;44.00;;;;;;6092805;23;20220;-81
2021/01/12 04:09:23;;;;;;;1.02;0.57;;;16.20;44.00;;;;;;6142872;23;20218;-82
2021/01/12 04:11:49;;;;;;;1.05;0.70;;;16.20;44.00;;;;;;6144413;23;20513;-81
2021/01/12 04:14:14;;;;;;;0.70;0.60;;;16.20;43.90;;;;;;6146740;23;20132;-82
2021/01/12 04:16:40;;;;;;;0.70;0.60;;;16.30;43.80;;;;;;6118869;23;20163;-82
2021/01/12 04:19:05;;;;;;;0.88;0.82;;;16.30;43.80;;;;;;6144327;23;20460;-82
2021/01/12 04:21:31;;;;;;;1.02;0.50;;;16.30;43.80;;;;;;6144259;23;20218;-83
2021/01/12 04:23:57;;;;;;;0.52;0.47;;;16.30;43.80;;;;;;6120407;23;20144;-81
2021/01/12 04:26:23;;;;;;;0.40;0.40;;;16.30;43.80;;;;;;6147214;23;20615;-82
2021/01/12 04:28:50;;;;;;;0.50;0.50;;;16.30;43.80;;;;;;6120680;23;20665;-82
2021/01/12 04:31:18;;;;;;;0.65;0.60;;;16.40;43.60;;;;;;6146503;23;20147;-82
2021/01/12 04:33:44;;;;;;;0.52;0.50;;;16.30;43.60;;;;;;6120076;23;20169;-81
2021/01/12 04:36:10;;;;;;;0.80;0.50;;;16.30;43.70;;;;;;6145583;23;20132;-82
2021/01/12 04:38:37;;;;;;;0.88;0.40;;;16.30;43.80;;;;;;6146313;23;20140;-82
2021/01/12 04:41:02;;;;;;;0.98;0.60;;;16.40;43.70;;;;;;6147062;23;20142;-81
2021/01/12 04:43:29;;;;;;;0.63;0.50;;;16.40;43.50;;;;;;6146857;23;20136;-82
2021/01/12 04:45:55;;;;;;;0.70;0.55;;;16.40;43.50;;;;;;6146768;23;20140;-82
2021/01/12 04:48:20;;;;;;;0.50;0.40;;;16.40;43.60;;;;;;6120980;23;20557;-82
2021/01/12 04:50:46;;;;;;;0.50;0.50;;;16.40;43.60;;;;;;6120422;23;20117;-82
2021/01/12 04:53:14;;;;;;;0.60;0.50;;;16.40;43.50;;;;;;6146661;23;20171;-82
2021/01/12 04:55:45;;;;;;;0.57;0.57;;;16.30;43.70;;;;;;6146435;23;20140;-82
2021/01/12 04:58:10;;;;;;;0.52;0.50;;;16.40;43.50;;;;;;6096505;23;20144;-82
2021/01/12 05:00:38;;;;;;;0.60;0.60;;;16.40;43.50;;;;;;6120385;23;20139;-82
2021/01/12 05:03:06;;;;;;;1.08;0.70;;;16.40;43.60;;;;;;6145325;23;20187;-82
2021/01/12 05:05:33;;;;;;;1.50;0.57;;;16.40;43.60;;;;;;6144806;23;20141;-82
2021/01/12 05:08:02;;;;;;;0.38;0.38;;;16.40;43.50;;;;;;6146418;23;20156;-81
2021/01/12 05:10:34;;;;;;;0.88;0.40;;;16.40;43.40;;;;;;6121679;23;20171;-81
2021/01/12 05:13:06;;;;;;;0.50;0.50;;;16.40;43.40;;;;;;6148294;23;20223;-81
2021/01/12 05:15:38;;;;;;;0.50;0.50;;;16.50;43.30;;;;;;6098472;23;20164;-82
2021/01/12 05:18:24;;;;;;;0.40;0.40;;;16.50;43.40;;;;;;6123226;23;20196;-82
2021/01/12 05:20:50;;;;;;;0.50;0.50;;;16.50;43.20;;;;;;6120124;23;20136;-81
2021/01/12 05:23:23;;;;;;;0.60;0.60;;;16.50;43.30;;;;;;6149155;23;20167;-81
2021/01/12 05:25:51;;;;;;;1.25;0.60;;;16.40;43.40;;;;;;6121450;23;20148;-81
2021/01/12 05:28:18;;;;;;;1.38;0.60;;;16.50;43.20;;;;;;6146423;23;20222;-82
2021/01/12 05:30:46;;;;;;;0.60;0.50;;;16.50;43.30;;;;;;6147364;23;20132;-82
2021/01/12 05:33:16;;;;;;;0.35;0.35;;;16.40;43.30;;;;;;6120801;23;20168;-82
2021/01/12 05:35:42;;;;;;;0.63;0.45;;;16.40;43.30;;;;;;6147496;23;20152;-82
2021/01/12 05:38:10;;;;;;;0.40;0.40;;;16.50;43.20;;;;;;6146638;23;20243;-82
2021/01/12 05:40:46;;;;;;;0.65;0.50;;;16.50;43.20;;;;;;6144906;23;20160;-81
2021/01/12 05:43:16;;;;;;;0.40;0.40;;;16.50;43.30;;;;;;6144412;23;20139;-82
2021/01/12 05:45:43;;;;;;;0.50;0.50;;;16.40;43.40;;;;;;6144404;23;20136;-82
2021/01/12 05:48:10;;;;;;;0.35;0.35;;;16.40;43.50;;;;;;6118721;23;20136;-82
2021/01/12 05:50:38;;;;;;;0.40;0.40;;;16.40;43.50;;;;;;6120350;23;20140;-82
2021/01/12 05:53:14;;;;;;;0.45;0.45;;;16.40;43.50;;;;;;6119502;23;20495;-81
2021/01/12 05:55:41;;;;;;;0.60;0.50;;;16.40;43.30;;;;;;6121403;23;20139;-82
2021/01/12 05:58:35;;;;;;;0.43;0.43;;;16.50;43.20;;;;;;6095002;23;20140;-82
2021/01/12 06:01:02;;;;;;;0.40;0.40;;;16.50;43.20;;;;;;6114238;23;20152;-82
2021/01/12 06:03:30;;;;;;;0.52;0.50;;;16.40;43.40;;;;;;6145189;23;20164;-82
2021/01/12 06:05:57;;;;;;;0.47;0.32;;;16.40;43.30;;;;;;6120100;23;20136;-83
2021/01/12 06:08:23;;;;;;;0.85;0.47;;;16.40;43.40;;;;;;6118949;23;20141;-82
2021/01/12 06:10:48;;;;;;;0.40;0.40;;;16.40;43.30;;;;;;6095791;23;20155;-82
2021/01/12 06:13:18;;;;;;;0.60;0.47;;;16.40;43.20;;;;;;6145093;23;20480;-82
2021/01/12 06:15:47;;;;;;;0.30;0.30;;;16.40;43.20;;;;;;6145095;23;20191;-82
2021/01/12 06:18:17;;;;;;;0.40;0.40;;;16.40;43.30;;;;;;6144497;23;20195;-82
2021/01/12 06:20:55;;;;;;;0.55;0.47;;;16.40;43.40;;;;;;6118864;23;20187;-82
2021/01/12 06:23:40;;;;;;;0.50;0.50;;;16.40;43.30;;;;;;6145212;23;20147;-82
2021/01/12 06:26:06;;;;;;;0.30;0.30;;;16.50;43.20;;;;;;6118830;23;20141;-82
2021/01/12 06:28:32;;;;;;;0.40;0.40;;;16.50;43.10;;;;;;6118448;23;20172;-82
2021/01/12 06:30:59;;;;;;;0.30;0.30;;;16.50;43.10;;;;;;6118943;23;20164;-82
2021/01/12 06:33:24;;;;;;;0.45;0.35;;;16.50;43.10;;;;;;6118104;23;20604;-82
2021/01/12 06:35:51;;;;;;;0.45;0.40;;;16.40;43.20;;;;;;6094194;23;20143;-82
2021/01/12 06:38:21;;;;;;;0.82;0.60;;;16.40;43.10;;;;;;6117894;23;20188;-82
2021/01/12 06:40:53;;;;;;;0.43;0.40;;;16.50;43.00;;;;;;6117759;23;20152;-82
2021/01/12 06:43:29;;;;;;;0.57;0.50;;;16.60;42.90;;;;;;6116262;23;20144;-83
2021/01/12 06:45:58;;;;;;;0.30;0.30;;;16.60;42.80;;;;;;6143557;23;20227;-83
2021/01/12 06:48:24;;;;;;;0.80;0.50;;;16.50;43.00;;;;;;6139966;23;20144;-80
2021/01/12 06:50:49;;;;;;;0.80;0.50;;;16.60;42.80;;;;;;6081690;23;20146;-79
2021/01/12 06:53:15;;;;;;;0.40;0.40;;;16.60;43.00;;;;;;6128120;23;20164;-78
2021/01/12 06:55:41;;;;;;;0.47;0.47;;;16.50;43.00;;;;;;6077807;23;20133;-81
2021/01/12 06:58:10;;;;;;;0.75;0.52;;;16.50;43.00;;;;;;6101650;23;20136;-79
2021/01/12 07:00:36;;;;;;;0.60;0.50;;;16.40;43.10;;;;;;6127014;23;20132;-79
2021/01/12 07:03:02;;;;;;;0.60;0.40;;;16.40;43.10;;;;;;6077582;23;20140;-79
2021/01/12 07:05:47;;;;;;;0.50;0.50;;;16.40;43.10;;;;;;6127719;23;20143;-79
2021/01/12 07:08:13;;;;;;;0.47;0.40;;;16.50;42.90;;;;;;6102173;23;20140;-79
2021/01/12 07:10:43;;;;;;;2.45;0.50;;;16.50;43.00;;;;;;6127533;23;20228;-79
2021/01/12 07:13:09;;;;;;;0.98;0.50;;;16.40;43.10;;;;;;6127293;23;20172;-81
2021/01/12 07:15:48;;;;;;;0.82;0.45;;;16.40;43.10;;;;;;6101846;23;20207;-78
2021/01/12 07:18:14;;;;;;;3.03;0.60;;;16.60;42.90;;;;;;6127360;23;20136;-81
2021/01/12 07:20:40;;;;;;;0.90;0.52;;;16.50;42.90;;;;;;6077820;23;20636;-80
2021/01/12 07:23:07;;;;;;;1.05;0.60;;;16.50;43.00;;;;;;6102000;23;20178;-79
2021/01/12 07:25:38;;;;;;;0.32;0.32;;;16.50;42.90;;;;;;6128035;23;20184;-80
2021/01/12 07:28:17;;;;;;;0.40;0.40;;;16.50;43.00;;;;;;6128053;23;20175;-80
2021/01/12 07:30:44;;;;;;;0.68;0.40;;;16.40;43.00;;;;;;6128214;23;20520;-80
2021/01/12 07:33:20;;;;;;;0.60;0.50;;;16.40;43.00;;;;;;6102165;23;20605;-79
2021/01/12 07:35:50;;;;;;;0.60;0.50;;;16.40;43.10;;;;;;6102411;23;20139;-79
2021/01/12 07:38:34;;;;;;;0.93;0.55;;;16.40;43.10;;;;;;6102185;23;20202;-80
2021/01/12 07:41:00;;;;;;;0.40;0.40;;;16.40;43.00;;;;;;6128517;23;20139;-81
2021/01/12 07:43:46;;;;;;;0.90;0.38;;;16.40;43.00;;;;;;6101698;23;20513;-79
2021/01/12 07:46:31;;;;;;;0.50;0.40;;;16.50;42.90;;;;;;6129485;23;20147;-80
2021/01/12 07:48:59;;;;;;;0.43;0.40;;;16.50;42.90;;;;;;6107354;23;20156;-79
2021/01/12 07:51:28;;;;;;;0.65;0.50;;;16.50;42.90;;;;;;6108067;23;20210;-79
2021/01/12 07:53:53;;;;;;;0.52;0.50;;;16.50;42.80;;;;;;6132886;23;20163;-81
2021/01/12 07:56:19;;;;;;;0.30;0.30;;;16.50;42.80;;;;;;6133078;23;20143;-79
2021/01/12 07:58:45;;;;;;;0.47;0.47;;;16.50;43.50;;;;;;6107186;23;20132;-80
2021/01/12 08:01:11;;;;;;;0.93;0.52;;;16.60;42.80;;;;;;6133238;23;20468;-81
2021/01/12 08:03:37;;;;;;;0.60;0.55;;;16.60;42.80;;;;;;6107721;23;20569;-81
2021/01/12 08:06:04;;;;;;;0.57;0.57;;;16.60;42.80;;;;;;6107907;23;20580;-80
2021/01/12 08:08:29;;;;;;;0.57;0.40;;;16.60;42.70;;;;;;6134812;23;20142;-79
2021/01/12 08:10:55;;;;;;;0.50;0.50;;;16.50;42.80;;;;;;6136407;23;20159;-80
2021/01/12 08:13:24;;;;;;;0.75;0.40;;;16.60;42.60;;;;;;6086726;23;20604;-80
2021/01/12 08:15:50;;;;;;;1.10;0.40;;;16.60;42.50;;;;;;6110020;23;20128;-80
2021/01/12 08:18:18;;;;;;;0.50;0.43;;;16.60;42.60;;;;;;6136112;23;20195;-78
2021/01/12 08:20:46;;;;;;;0.68;0.40;;;16.60;42.40;;;;;;6139215;23;20167;-82
2021/01/12 08:23:21;;;;;;;1.15;0.60;;;16.70;42.30;;;;;;6139887;23;20445;-82
2021/01/12 08:25:47;;;;;;;0.50;0.50;;;16.70;42.30;;;;;;6140216;23;20215;-78
2021/01/12 08:28:13;;;;;;;1.40;0.63;;;16.80;42.20;;;;;;6113247;23;20143;-79
2021/01/12 08:30:40;;;;;;;0.50;0.40;;;16.70;42.20;;;;;;6085563;23;20144;-79
2021/01/12 08:33:23;;;;;;;0.50;0.50;;;16.70;42.30;;;;;;6063004;23;20164;-82
2021/01/12 08:35:54;;;;;;;2.25;0.80;;;16.70;42.40;;;;;;6137860;23;20191;-80
2021/01/12 08:38:21;;;;;;;1.85;0.60;;;16.70;42.40;;;;;;6111639;23;20286;-80
2021/01/12 08:40:47;;;;;;;4.00;0.60;;;16.60;42.60;;;;;;6112367;23;20147;-79
2021/01/12 08:43:18;;;;;;;3.65;0.60;;;16.60;42.60;;;;;;6089737;23;20136;-81
2021/01/12 08:45:47;;;;;;;2.10;0.40;;;16.50;42.70;;;;;;6138947;23;20167;-82
2021/01/12 08:48:16;;;;;;;1.05;0.50;;;16.60;42.60;;;;;;6113304;23;20164;-80
2021/01/12 08:50:45;;;;;;;7.85;0.73;;;16.70;42.30;;;;;;6113095;23;20147;-80
2021/01/12 08:53:15;;;;;;;1.60;0.50;;;16.70;42.10;;;;;;6113523;23;20168;-79
2021/01/12 08:55:41;;;;;;;3.78;0.80;;;16.70;42.20;;;;;;6112705;23;20136;-81
2021/01/12 08:58:07;;;;;;;7.80;0.60;;;16.70;42.30;;;;;;6139098;23;20164;-81
2021/01/12 09:00:34;;;;;;;7.50;0.73;;;16.80;42.20;;;;;;6137522;23;20231;-80
2021/01/12 09:03:01;;;;;;;7.53;0.68;;;16.90;42.00;;;;;;6112490;23;20190;-80
2021/01/12 09:05:36;;;;;;;10.82;0.85;;;16.80;42.30;;;;;;6112840;23;20136;-81
2021/01/12 09:08:05;;;;;;;3.63;0.80;;;16.80;42.30;;;;;;6139014;23;20136;-79
2021/01/12 09:10:33;;;;;;;6.43;1.90;;;16.80;42.00;;;;;;6089147;23;20187;-79
2021/01/12 09:12:59;;;;;;;5.95;0.75;;;16.80;42.20;;;;;;6066004;23;20271;-79
2021/01/12 09:15:31;;;;;;;9.27;0.60;;;16.70;42.30;;;;;;6066615;23;20148;-79
2021/01/12 09:18:13;;;;;;;4.90;0.88;;;16.80;42.30;;;;;;6067957;23;20148;-80
2021/01/12 09:20:54;;;;;;;0.60;0.60;;;16.80;42.10;;;;;;6068436;23;20576;-81
2021/01/12 09:23:20;;;;;;;2.17;0.70;;;16.80;42.00;;;;;;6113683;23;20213;-79
2021/01/12 09:25:54;;;;;;;3.38;0.50;;;16.80;41.90;;;;;;6067293;23;20216;-79
2021/01/12 09:28:26;;;;;;;5.72;0.68;;;16.90;41.90;;;;;;6068023;23;20149;-80
2021/01/12 09:31:13;;;;;;;3.53;0.75;;;16.90;42.00;;;;;;6091313;23;20137;-79
2021/01/12 09:33:44;;;;;;;1.35;0.50;;;16.90;42.00;;;;;;6068900;23;20262;-80
2021/01/12 09:36:12;;;;;;;4.13;0.57;;;16.90;42.00;;;;;;6067995;23;20156;-78
2021/01/12 09:38:43;;;;;;;1.20;0.55;;;17.00;42.10;;;;;;6068148;23;20163;-80
2021/01/12 09:41:10;;;;;;;1.75;0.45;;;16.90;42.10;;;;;;6092305;23;20152;-79
2021/01/12 09:43:36;;;;;;;1.05;0.47;;;17.00;42.00;;;;;;6066067;23;20551;-80
2021/01/12 09:46:05;;;;;;;2.08;0.52;;;17.00;42.10;;;;;;6091977;23;20156;-79
2021/01/12 09:48:32;;;;;;;1.38;0.63;;;17.00;42.10;;;;;;6115545;23;20583;-80
2021/01/12 09:50:59;;;;;;;3.88;0.60;;;17.00;42.10;;;;;;6091141;23;20572;-79
2021/01/12 09:53:25;;;;;;;2.92;0.68;;;16.90;42.60;;;;;;6066928;23;20195;-79
2021/01/12 09:55:54;;;;;;;3.47;0.50;;;16.90;43.00;;;;;;6067786;23;20156;-79
2021/01/12 09:58:20;;;;;;;2.30;0.60;;;16.90;43.10;;;;;;6067467;23;20159;-80
2021/01/12 10:00:46;;;;;;;0.98;0.70;;;16.90;42.70;;;;;;6067398;23;20156;-79
2021/01/12 10:03:13;;;;;;;3.83;0.50;;;16.90;42.60;;;;;;6066113;23;20156;-80
2021/01/12 10:05:40;;;;;;;1.27;0.50;;;16.90;42.80;;;;;;6115220;23;20140;-80
2021/01/12 10:08:06;;;;;;;1.58;0.65;;;16.90;42.60;;;;;;6113414;23;20136;-79
2021/01/12 10:10:33;;;;;;;3.72;0.47;;;17.00;42.20;;;;;;6140755;23;20140;-79
2021/01/12 10:12:58;;;;;;;1.83;0.60;;;16.90;42.50;;;;;;6141142;23;20195;-79
2021/01/12 10:15:26;;;;;;;3.80;0.80;;;16.90;42.60;;;;;;6139115;23;20132;-79
2021/01/12 10:17:52;;;;;;;1.92;0.60;;;16.90;42.60;;;;;;6139486;23;20183;-79
2021/01/12 10:20:19;;;;;;;2.50;0.60;;;16.90;42.40;;;;;;6067820;23;20152;-80
2021/01/12 10:22:45;;;;;;;2.60;0.45;;;17.00;42.00;;;;;;6091061;23;20180;-81
2021/01/12 10:25:13;;;;;;;1.65;0.52;;;17.10;42.10;;;;;;6113338;23;20520;-79
2021/01/12 10:27:40;;;;;;;1.48;0.60;;;17.10;42.10;;;;;;6065371;23;20156;-80
2021/01/12 10:30:10;;;;;;;2.63;0.90;;;17.10;42.10;;;;;;6092382;23;20132;-80
2021/01/12 10:32:35;;;;;;;1.00;0.40;;;17.10;42.10;;;;;;6092330;23;20493;-80
2021/01/12 10:35:03;;;;;;;3.15;0.60;;;17.10;42.20;;;;;;6092222;23;20160;-80
2021/01/12 10:37:30;;;;;;;2.60;0.50;;;17.00;42.40;;;;;;6140966;23;20214;-81
2021/01/12 10:39:58;;;;;;;1.48;0.60;;;16.90;42.40;;;;;;6140428;23;20132;-78
2021/01/12 10:42:24;;;;;;;1.75;0.63;;;16.90;42.30;;;;;;6140828;23;20461;-79
2021/01/12 10:44:50;;;;;;;3.00;0.63;;;16.90;42.60;;;;;;6113697;23;20140;-79
2021/01/12 10:47:17;;;;;;;2.20;0.70;;;16.90;42.70;;;;;;6137774;23;20572;-79
2021/01/12 10:49:42;;;;;;;2.53;0.52;;;16.90;42.50;;;;;;6108979;23;20219;-78
2021/01/12 10:52:11;;;;;;;1.52;0.52;;;16.90;42.60;;;;;;6111204;23;20584;-79
2021/01/12 10:54:37;;;;;;;1.35;0.60;;;16.80;42.60;;;;;;6112385;23;20136;-78
2021/01/12 10:57:07;;;;;;;3.83;0.70;;;16.90;42.30;;;;;;6086120;23;20468;-77
2021/01/12 10:59:33;;;;;;;1.77;0.50;;;17.10;42.40;;;;;;6134937;23;20639;-79
2021/01/12 11:02:01;;;;;;;1.75;0.30;;;17.00;42.20;;;;;;6135034;23;20152;-80
2021/01/12 11:04:26;;;;;;;2.15;0.50;;;17.00;42.20;;;;;;6108806;23;20244;-80
2021/01/12 11:06:54;;;;;;;1.23;0.50;;;17.10;42.20;;;;;;6133434;23;20584;-78
2021/01/12 11:09:20;;;;;;;0.70;0.60;;;17.10;42.30;;;;;;6106137;23;20139;-79
2021/01/12 11:11:48;;;;;;;11.48;1.25;;;17.10;42.00;;;;;;6106303;23;20132;-77
2021/01/12 11:14:21;;;;;;;2.80;0.68;;;17.10;42.10;;;;;;6104989;23;20619;-77
2021/01/12 11:16:47;;;;;;;5.78;0.90;;;17.10;42.10;;;;;;6106994;23;20156;-77
2021/01/12 11:19:16;;;;;;;8.27;0.88;;;17.10;42.10;;;;;;6128609;23;20151;-77
2021/01/12 11:21:48;;;;;;;8.85;0.90;;;17.00;42.20;;;;;;6105778;23;20128;-79
2021/01/12 11:24:19;;;;;;;15.00;1.20;;;17.20;41.90;;;;;;6131891;23;20140;-80
2021/01/12 11:26:44;;;;;;;7.88;0.80;;;17.20;41.80;;;;;;6087038;23;20228;-78
2021/01/12 11:29:10;;;;;;;4.88;0.68;;;17.20;41.80;;;;;;6133672;23;20141;-80
2021/01/12 11:31:37;;;;;;;5.47;0.63;;;17.20;41.90;;;;;;6109087;23;20141;-79
2021/01/12 11:34:03;;;;;;;6.45;0.80;;;17.20;41.70;;;;;;6135908;23;20219;-76
2021/01/12 11:36:33;;;;;;;3.47;0.40;;;17.20;41.80;;;;;;6134468;23;20195;-78
2021/01/12 11:38:59;;;;;;;5.70;0.80;;;17.10;42.00;;;;;;6110476;23;20139;-78
2021/01/12 11:41:26;;;;;;;4.70;0.60;;;17.10;41.90;;;;;;6133755;23;20136;-78
2021/01/12 11:43:52;;;;;;;7.70;0.70;;;17.10;41.60;;;;;;6134865;23;20132;-78
2021/01/12 11:46:27;;;;;;;8.05;0.98;;;17.20;41.50;;;;;;6108202;23;20156;-79
2021/01/12 11:48:55;;;;;;;3.40;0.60;;;17.10;41.70;;;;;;6086984;23;20166;-79
2021/01/12 11:51:21;;;;;;;5.85;0.90;;;17.10;41.70;;;;;;6110674;23;20143;-79
2021/01/12 11:53:51;;;;;;;3.03;0.70;;;17.10;41.60;;;;;;6112530;23;20167;-78
2021/01/12 11:56:20;;;;;;;3.42;0.82;;;17.20;41.60;;;;;;6141289;23;20152;-80
2021/01/12 11:58:46;;;;;;;2.95;0.60;;;17.20;41.50;;;;;;6138309;23;20132;-77
2021/01/12 12:01:11;;;;;;;1.92;0.60;;;17.20;41.60;;;;;;6103664;23;20163;-80
2021/01/12 12:03:37;;;;;;;6.40;0.70;;;17.10;41.50;;;;;;6104384;23;20488;-78
2021/01/12 12:06:03;;;;;;;5.50;0.60;;;17.10;41.60;;;;;;6128925;23;20476;-78
2021/01/12 12:08:29;;;;;;;7.30;0.82;;;17.10;41.60;;;;;;6104304;23;20145;-80
2021/01/12 12:11:02;;;;;;;3.38;0.70;;;17.10;41.50;;;;;;6090273;23;20480;-80
2021/01/12 12:13:29;;;;;;;4.70;0.52;;;17.10;41.40;;;;;;6116975;23;20168;-80
2021/01/12 12:15:56;;;;;;;6.05;0.60;;;17.10;41.60;;;;;;6135667;23;20196;-78
2021/01/12 12:18:23;;;;;;;2.13;0.40;;;17.10;41.60;;;;;;6135866;23;20160;-79
2021/01/12 12:20:49;;;;;;;1.23;0.68;;;17.10;41.70;;;;;;6107009;23;20133;-79
2021/01/12 12:23:16;;;;;;;2.35;0.57;;;17.10;41.40;;;;;;6111350;23;20139;-80
2021/01/12 12:25:41;;;;;;;1.40;0.70;;;17.10;41.50;;;;;;6135069;23;20635;-78
2021/01/12 12:28:07;;;;;;;0.77;0.60;;;17.10;41.30;;;;;;6137350;23;20141;-78
2021/01/12 12:30:33;;;;;;;0.52;0.40;;;17.20;41.00;;;;;;6139966;23;20572;-79
2021/01/12 12:32:58;;;;;;;2.38;0.60;;;17.30;41.00;;;;;;6140708;23;20164;-80
2021/01/12 12:35:24;;;;;;;3.17;0.98;;;17.30;40.70;;;;;;6140617;23;20136;-79
2021/01/12 12:37:50;;;;;;;2.75;0.52;;;17.20;41.00;;;;;;6144984;23;20195;-80
2021/01/12 12:40:18;;;;;;;6.50;1.58;;;17.20;40.90;;;;;;6143286;23;20164;-80
2021/01/12 12:42:44;;;;;;;4.93;0.70;;;17.30;40.90;;;;;;6116144;23;20572;-82
2021/01/12 12:45:10;;;;;;;0.82;0.50;;;17.20;41.20;;;;;;6140495;23;20144;-82
2021/01/12 12:47:40;;;;;;;3.97;0.40;;;17.20;41.00;;;;;;6140189;23;20217;-80
2021/01/12 12:50:07;;;;;;;1.92;0.70;;;17.20;41.00;;;;;;6113940;23;20147;-83